createdAt,value
2019-01-16T00:03:10.950Z,5.99
2019-01-16T00:05:43.528Z,5.92
2019-01-16T00:08:13.580Z,6.15
2019-01-16T00:10:52.406Z,5.84
2019-01-16T00:13:22.498Z,5.89
2019-01-16T00:15:58.660Z,5.88
2019-01-16T00:18:40.432Z,5.87
2019-01-16T00:21:16.441Z,6.04
2019-01-16T00:23:48.958Z,6.01
2019-01-16T00:26:21.686Z,6.08
2019-01-16T00:28:54.536Z,6.03
2019-01-16T00:31:24.614Z,6.06
2019-01-16T00:33:57.353Z,6.21
2019-01-16T00:36:27.402Z,5.96
2019-01-16T00:39:09.418Z,6.01
2019-01-16T00:41:48.507Z,5.92
2019-01-16T00:44:21.018Z,6.12
2019-01-16T00:46:56.548Z,6.12
2019-01-16T00:49:26.605Z,6.12
2019-01-16T00:51:59.816Z,6.17
2019-01-16T00:54:29.868Z,6.17
2019-01-16T00:57:14.951Z,6.12
2019-01-16T00:59:45.006Z,6.17
2019-01-16T01:02:27.106Z,6.13
2019-01-16T01:04:57.192Z,6.18
2019-01-16T01:07:39.663Z,6.04
2019-01-16T01:10:17.531Z,6.13
2019-01-16T01:12:59.856Z,6.07
2019-01-16T01:15:41.762Z,6.23
2019-01-16T01:18:23.783Z,6.07
2019-01-16T01:20:59.910Z,6.07
2019-01-16T01:23:41.713Z,6.07
2019-01-16T01:26:11.755Z,6.02
2019-01-16T01:28:41.800Z,6.10
2019-01-16T01:31:11.881Z,6.12
2019-01-16T01:34:00.301Z,6.17
2019-01-16T01:36:48.541Z,6.19
2019-01-16T01:39:34.566Z,6.18
2019-01-16T01:42:13.768Z,6.15
2019-01-16T01:44:43.846Z,6.09
2019-01-16T01:47:16.641Z,5.95
2019-01-16T01:49:55.679Z,5.95
2019-01-16T01:52:41.735Z,6.06
2019-01-16T01:55:14.618Z,6.15
2019-01-16T01:57:44.745Z,6.12
2019-01-16T02:00:31.270Z,6.17
2019-01-16T02:03:17.690Z,6.18
2019-01-16T02:05:50.459Z,6.14
2019-01-16T02:08:38.348Z,6.19
2019-01-16T02:11:08.530Z,6.17
2019-01-16T02:13:44.476Z,6.15
2019-01-16T02:16:30.732Z,6.08
2019-01-16T02:19:16.652Z,6.10
2019-01-16T02:21:52.766Z,6.18
2019-01-16T02:24:25.655Z,5.88
2019-01-16T02:26:55.688Z,6.11
2019-01-16T02:29:42.376Z,6.09
2019-01-16T02:32:15.098Z,6.09
2019-01-16T02:34:51.362Z,6.08
2019-01-16T02:37:33.814Z,6.12
2019-01-16T02:40:03.848Z,6.17
2019-01-16T02:42:33.907Z,6.02
2019-01-16T02:45:19.923Z,5.99
2019-01-16T02:47:49.974Z,6.01
2019-01-16T02:50:28.802Z,6.13
2019-01-16T02:53:13.966Z,6.15
2019-01-16T02:55:46.628Z,6.14
2019-01-16T02:58:25.568Z,6.17
2019-01-16T03:01:13.779Z,6.10
2019-01-16T03:03:46.664Z,6.18
2019-01-16T03:06:33.072Z,5.92
2019-01-16T03:09:05.567Z,6.00
2019-01-16T03:11:41.367Z,6.02
2019-01-16T03:14:11.509Z,6.09
2019-01-16T03:16:59.703Z,6.06
2019-01-16T03:19:35.241Z,6.02
2019-01-16T03:22:05.464Z,6.08
2019-01-16T03:24:38.318Z,6.27
2019-01-16T03:27:20.258Z,6.03
2019-01-16T03:29:50.338Z,6.17
2019-01-16T03:32:32.135Z,6.08
2019-01-16T03:35:02.216Z,6.09
2019-01-16T03:37:37.976Z,6.08
2019-01-16T03:40:25.951Z,6.09
2019-01-16T03:43:01.907Z,6.04
2019-01-16T03:45:34.920Z,6.11
2019-01-16T03:48:21.177Z,5.94
2019-01-16T03:50:51.214Z,5.87
2019-01-16T03:53:27.039Z,5.97
2019-01-16T03:55:57.100Z,6.03
2019-01-16T03:58:27.133Z,6.06
2019-01-16T04:00:57.266Z,5.98
2019-01-16T04:03:27.406Z,6.08
2019-01-16T04:05:57.561Z,5.97
2019-01-16T04:08:30.267Z,6.09
2019-01-16T04:11:08.917Z,6.04
2019-01-16T04:13:39.016Z,6.02
2019-01-16T04:16:14.866Z,5.90
2019-01-16T04:18:50.776Z,6.10
2019-01-16T04:21:23.667Z,6.04
2019-01-16T04:23:56.554Z,6.01
2019-01-16T04:26:42.628Z,6.14
2019-01-16T04:29:28.928Z,5.88
2019-01-16T04:32:01.632Z,6.08
2019-01-16T04:34:31.699Z,6.08
2019-01-16T04:37:01.771Z,6.09
2019-01-16T04:39:46.713Z,5.96
2019-01-16T04:42:35.224Z,5.91
2019-01-16T04:45:06.320Z,6.01
2019-01-16T04:47:54.648Z,6.07
2019-01-16T04:50:41.139Z,5.86
2019-01-16T04:53:14.034Z,5.91
2019-01-16T04:55:47.111Z,6.07
2019-01-16T04:58:17.154Z,5.95
2019-01-16T05:00:49.999Z,5.96
2019-01-16T05:03:20.048Z,5.97
2019-01-16T05:05:52.704Z,5.91
2019-01-16T05:08:38.133Z,5.98
2019-01-16T05:11:10.677Z,5.98
2019-01-16T05:13:56.990Z,5.85
2019-01-16T05:16:39.019Z,5.89
2019-01-16T05:19:24.122Z,5.96
2019-01-16T05:22:10.359Z,6.02
2019-01-16T05:24:55.550Z,5.96
2019-01-16T05:27:42.099Z,5.90
2019-01-16T05:30:13.515Z,5.96
2019-01-16T05:32:46.517Z,5.88
2019-01-16T05:35:16.656Z,5.85
2019-01-16T05:37:49.402Z,5.90
2019-01-16T05:40:19.436Z,5.86
2019-01-16T05:42:49.496Z,5.92
2019-01-16T05:45:22.556Z,5.87
2019-01-16T05:48:04.810Z,5.87
2019-01-16T05:50:37.347Z,5.79
2019-01-16T05:53:16.326Z,5.81
2019-01-16T05:56:02.592Z,5.71
2019-01-16T05:58:32.679Z,5.76
2019-01-16T06:01:08.732Z,5.91
2019-01-16T06:03:41.678Z,5.80
2019-01-16T06:06:17.705Z,5.95
2019-01-16T06:08:56.519Z,5.89
2019-01-16T06:11:29.112Z,5.89
2019-01-16T06:13:59.181Z,6.01
2019-01-16T06:16:29.226Z,5.88
2019-01-16T06:18:59.317Z,5.94
2019-01-16T06:21:29.419Z,5.74
2019-01-16T06:24:15.543Z,5.88
2019-01-16T06:26:45.577Z,5.77
2019-01-16T06:29:30.721Z,5.80
2019-01-16T06:32:16.026Z,5.85
2019-01-16T06:34:46.094Z,5.57
2019-01-16T06:37:28.208Z,5.64
2019-01-16T06:40:07.461Z,5.80
2019-01-16T06:42:37.624Z,5.62
2019-01-16T06:45:26.958Z,5.74
2019-01-16T06:48:08.718Z,5.63
2019-01-16T06:50:56.772Z,5.58
2019-01-16T06:53:26.929Z,5.67
2019-01-16T06:56:08.996Z,5.70
2019-01-16T06:58:39.079Z,5.82
2019-01-16T07:01:15.095Z,5.63
2019-01-16T07:04:00.049Z,5.63
2019-01-16T07:06:33.109Z,5.54
2019-01-16T07:09:19.426Z,5.65
2019-01-16T07:11:58.160Z,5.65
2019-01-16T07:14:34.429Z,5.61
2019-01-16T07:17:04.540Z,5.68
2019-01-16T07:19:43.725Z,5.68
2019-01-16T07:22:13.799Z,5.74
2019-01-16T07:24:49.847Z,5.83
2019-01-16T07:27:31.537Z,5.80
2019-01-16T07:30:13.420Z,5.47
2019-01-16T07:32:58.572Z,5.76
2019-01-16T07:35:31.111Z,5.59
2019-01-16T07:38:17.800Z,5.79
2019-01-16T07:41:02.928Z,5.65
2019-01-16T07:43:51.944Z,5.63
2019-01-16T07:46:22.030Z,5.75
2019-01-16T07:48:52.102Z,5.80
2019-01-16T07:51:22.144Z,5.67
2019-01-16T07:54:01.115Z,5.67
2019-01-16T07:56:37.242Z,5.72
2019-01-16T07:59:10.528Z,5.76
2019-01-16T08:01:52.743Z,5.80
2019-01-16T08:04:31.859Z,5.72
2019-01-16T08:07:05.061Z,5.60
2019-01-16T08:09:35.110Z,5.76
2019-01-16T08:12:07.893Z,5.71
2019-01-16T08:14:47.249Z,5.78
2019-01-16T08:17:33.659Z,5.84
2019-01-16T08:20:15.472Z,5.81
2019-01-16T08:23:01.904Z,5.74
2019-01-16T08:25:34.710Z,5.84
2019-01-16T08:28:04.756Z,5.79
2019-01-16T08:30:51.294Z,5.75
2019-01-16T08:33:23.914Z,5.64
2019-01-16T08:35:53.951Z,5.97
2019-01-16T08:38:24.105Z,5.82
2019-01-16T08:40:56.876Z,5.90
2019-01-16T08:43:27.002Z,5.84
2019-01-16T08:46:05.884Z,5.79
2019-01-16T08:48:36.022Z,5.67
2019-01-16T08:51:23.096Z,5.80
2019-01-16T08:53:59.005Z,5.60
2019-01-16T08:56:31.794Z,5.85
2019-01-16T08:59:07.591Z,5.76
2019-01-16T09:01:37.707Z,5.61
2019-01-16T09:04:26.541Z,5.54
2019-01-16T09:06:59.434Z,5.60
2019-01-16T09:09:44.482Z,5.81
2019-01-16T09:12:17.422Z,5.67
2019-01-16T09:15:04.170Z,5.85
2019-01-16T09:17:52.423Z,5.57
2019-01-16T09:20:22.483Z,5.54
2019-01-16T09:22:58.709Z,5.55
2019-01-16T09:25:34.970Z,5.67
2019-01-16T09:28:14.288Z,5.39
2019-01-16T09:30:44.369Z,5.48
2019-01-16T09:33:23.499Z,5.45
2019-01-16T09:35:53.570Z,5.54
2019-01-16T09:38:29.147Z,5.64
2019-01-16T09:41:14.481Z,5.89
2019-01-16T09:43:50.553Z,5.60
2019-01-16T09:46:35.659Z,5.62
2019-01-16T09:49:05.910Z,5.68
2019-01-16T09:51:54.023Z,5.40
2019-01-16T09:54:30.228Z,5.78
2019-01-16T09:57:16.725Z,5.83
2019-01-16T09:59:50.432Z,5.58
2019-01-16T10:02:36.635Z,5.60
2019-01-16T10:05:11.534Z,5.79
2019-01-16T10:07:41.577Z,5.81
2019-01-16T10:10:25.516Z,5.77
2019-01-16T10:13:10.716Z,6.10
2019-01-16T10:15:57.231Z,6.06
2019-01-16T10:18:27.301Z,5.76
2019-01-16T10:20:57.402Z,6.06
2019-01-16T10:23:45.499Z,6.15
2019-01-16T10:26:31.941Z,5.97
2019-01-16T10:29:04.800Z,6.06
2019-01-16T10:31:52.994Z,5.95
2019-01-16T10:34:29.101Z,6.03
2019-01-16T10:36:59.161Z,6.16
2019-01-16T10:39:47.191Z,6.12
2019-01-16T10:42:26.117Z,6.20
2019-01-16T10:44:59.200Z,6.10
2019-01-16T10:47:41.043Z,6.14
2019-01-16T10:50:19.826Z,6.33
2019-01-16T10:52:49.919Z,6.18
2019-01-16T10:55:19.966Z,6.33
2019-01-16T10:57:55.968Z,6.56
2019-01-16T11:00:31.881Z,6.20
2019-01-16T11:03:10.990Z,6.65
2019-01-16T11:05:47.200Z,6.29
2019-01-16T11:08:17.243Z,6.53
2019-01-16T11:10:59.363Z,6.43
2019-01-16T11:13:35.382Z,6.58
2019-01-16T11:16:20.780Z,6.72
2019-01-16T11:18:56.705Z,7.03
2019-01-16T11:21:42.868Z,6.95
2019-01-16T11:24:15.766Z,6.72
2019-01-16T11:27:02.312Z,7.05
2019-01-16T11:29:35.041Z,7.17
2019-01-16T11:32:17.028Z,7.48
2019-01-16T11:34:49.804Z,7.30
2019-01-16T11:37:20.059Z,7.25
2019-01-16T11:39:53.076Z,7.12
2019-01-16T11:42:23.139Z,7.47
2019-01-16T11:45:02.281Z,7.16
2019-01-16T11:47:38.246Z,7.13
2019-01-16T11:50:21.268Z,7.20
2019-01-16T11:52:57.268Z,7.11
2019-01-16T11:55:44.089Z,7.03
2019-01-16T11:58:23.000Z,7.38
2019-01-16T12:00:53.226Z,7.24
2019-01-16T12:03:23.294Z,7.33
2019-01-16T12:05:53.332Z,7.21
2019-01-16T12:08:23.705Z,7.38
2019-01-16T12:11:08.622Z,7.26
2019-01-16T12:13:41.499Z,7.39
2019-01-16T12:16:28.217Z,7.48
2019-01-16T12:18:58.271Z,7.53
2019-01-16T12:21:40.667Z,7.28
2019-01-16T12:24:17.053Z,7.13
2019-01-16T12:27:03.347Z,7.42
2019-01-16T12:29:36.312Z,7.03
2019-01-16T12:32:06.548Z,7.17
2019-01-16T12:34:39.307Z,7.24
2019-01-16T12:37:15.066Z,6.99
2019-01-16T12:39:45.128Z,7.27
2019-01-16T12:42:17.990Z,7.15
2019-01-16T12:45:00.514Z,7.10
2019-01-16T12:47:30.664Z,7.01
2019-01-16T12:50:03.154Z,7.03
2019-01-16T12:52:36.021Z,7.28
2019-01-16T12:55:25.930Z,7.15
2019-01-16T12:58:13.342Z,7.24
2019-01-16T13:00:51.405Z,7.01
2019-01-16T13:03:21.624Z,7.16
2019-01-16T13:06:00.710Z,7.07
2019-01-16T13:08:42.546Z,7.13
2019-01-16T13:11:15.549Z,7.06
2019-01-16T13:13:51.214Z,7.17
2019-01-16T13:16:21.348Z,7.32
2019-01-16T13:19:03.335Z,7.32
2019-01-16T13:21:39.936Z,7.16
2019-01-16T13:24:17.425Z,7.08
2019-01-16T13:26:53.011Z,6.83
2019-01-16T13:29:23.068Z,7.06
2019-01-16T13:31:53.281Z,6.94
2019-01-16T13:34:26.334Z,7.11
2019-01-16T13:36:56.386Z,7.01
2019-01-16T13:39:26.533Z,6.84
2019-01-16T13:41:56.606Z,6.81
2019-01-16T13:44:32.664Z,6.72
2019-01-16T13:47:11.712Z,6.78
2019-01-16T13:49:50.775Z,6.78
2019-01-16T13:52:26.821Z,6.66
2019-01-16T13:55:03.094Z,6.78
2019-01-16T13:57:33.184Z,6.73
2019-01-16T14:00:19.684Z,6.83
2019-01-16T14:03:05.962Z,6.59
2019-01-16T14:05:38.901Z,6.64
2019-01-16T14:08:09.037Z,6.55
2019-01-16T14:10:45.201Z,6.53
2019-01-16T14:13:15.278Z,6.67
2019-01-16T14:15:48.076Z,6.60
2019-01-16T14:18:18.472Z,6.85
2019-01-16T14:20:57.637Z,6.42
2019-01-16T14:23:27.724Z,6.49
2019-01-16T14:26:10.339Z,6.52
2019-01-16T14:28:43.274Z,6.39
2019-01-16T14:31:30.083Z,6.49
2019-01-16T14:34:16.382Z,6.45
2019-01-16T14:37:02.692Z,6.29
2019-01-16T14:39:50.976Z,6.26
2019-01-16T14:42:24.100Z,6.20
2019-01-16T14:45:06.374Z,6.13
2019-01-16T14:47:36.678Z,6.30
2019-01-16T14:50:10.188Z,6.43
2019-01-16T14:52:49.087Z,6.21
2019-01-16T14:55:33.912Z,6.24
2019-01-16T14:58:19.062Z,6.10
2019-01-16T15:01:00.963Z,6.25
2019-01-16T15:03:43.194Z,6.22
2019-01-16T15:06:13.331Z,6.18
2019-01-16T15:09:00.105Z,6.28
2019-01-16T15:11:38.851Z,6.10
2019-01-16T15:14:11.801Z,6.24
2019-01-16T15:16:44.573Z,6.22
2019-01-16T15:19:20.414Z,6.08
2019-01-16T15:22:02.849Z,6.15
2019-01-16T15:24:31.682Z,5.99
2019-01-16T15:27:01.858Z,6.06
2019-01-16T15:29:40.831Z,6.05
2019-01-16T15:32:29.330Z,5.99
2019-01-16T15:35:15.865Z,5.96
2019-01-16T15:37:46.299Z,5.81
2019-01-16T15:40:28.758Z,5.80
2019-01-16T15:42:58.943Z,6.04
2019-01-16T15:45:45.199Z,5.88
2019-01-16T15:48:31.695Z,5.97
2019-01-16T15:51:18.017Z,5.68
2019-01-16T15:53:51.131Z,5.96
2019-01-16T15:56:27.396Z,5.98
2019-01-16T15:59:15.593Z,5.73
2019-01-16T16:01:45.910Z,5.70
2019-01-16T16:04:24.580Z,5.54
2019-01-16T16:07:03.955Z,5.78
2019-01-16T16:09:45.767Z,5.91
2019-01-16T16:12:34.406Z,5.55
2019-01-16T16:15:07.126Z,5.80
2019-01-16T16:17:53.440Z,5.92
2019-01-16T16:20:23.490Z,5.74
2019-01-16T16:22:59.898Z,5.67
2019-01-16T16:25:38.954Z,5.71
2019-01-16T16:28:11.756Z,5.62
2019-01-16T16:30:41.804Z,5.38
2019-01-16T16:33:14.552Z,5.58
2019-01-16T16:36:00.943Z,5.53
2019-01-16T16:38:40.120Z,5.54
2019-01-16T16:41:12.968Z,5.50
2019-01-16T16:43:59.190Z,5.34
2019-01-16T16:46:31.663Z,5.28
2019-01-16T16:49:04.697Z,5.35
2019-01-16T16:51:51.004Z,5.48
2019-01-16T16:54:24.096Z,5.38
2019-01-16T16:57:06.247Z,5.12
2019-01-16T16:59:42.308Z,5.21
2019-01-16T17:02:15.491Z,5.34
2019-01-16T17:04:45.522Z,5.32
2019-01-16T17:07:24.220Z,5.50
2019-01-16T17:09:54.326Z,5.15
2019-01-16T17:12:30.247Z,5.37
2019-01-16T17:15:09.470Z,5.42
2019-01-16T17:17:45.076Z,5.28
2019-01-16T17:20:21.472Z,5.45
2019-01-16T17:22:51.526Z,5.57
2019-01-16T17:25:24.336Z,5.14
2019-01-16T17:28:10.531Z,5.01
2019-01-16T17:30:55.922Z,5.29
2019-01-16T17:33:42.172Z,5.30
2019-01-16T17:36:28.609Z,5.34
2019-01-16T17:39:17.229Z,5.27
2019-01-16T17:41:56.502Z,5.55
2019-01-16T17:44:32.494Z,5.55
2019-01-16T17:47:08.378Z,5.30
2019-01-16T17:49:50.346Z,5.05
2019-01-16T17:52:38.916Z,5.30
2019-01-16T17:55:18.419Z,5.01
2019-01-16T17:57:48.514Z,5.15
2019-01-16T18:00:24.916Z,5.15
2019-01-16T18:02:57.786Z,5.24
2019-01-16T18:05:44.401Z,5.18
2019-01-16T18:08:30.900Z,5.14
2019-01-16T18:11:10.135Z,5.42
2019-01-16T18:13:40.385Z,4.97
2019-01-16T18:16:28.971Z,4.83
2019-01-16T18:19:15.590Z,4.87
2019-01-16T18:21:48.657Z,5.02
2019-01-16T18:24:35.313Z,5.03
2019-01-16T18:27:20.595Z,4.97
2019-01-16T18:29:50.808Z,4.85
2019-01-16T18:32:36.519Z,4.97
2019-01-16T18:35:16.973Z,5.34
2019-01-16T18:37:47.304Z,5.12
2019-01-16T18:40:32.933Z,4.98
2019-01-16T18:43:03.306Z,4.92
2019-01-16T18:45:33.689Z,4.58
2019-01-16T18:48:15.852Z,5.15
2019-01-16T18:51:02.279Z,4.86
2019-01-16T18:53:49.087Z,4.66
2019-01-16T18:56:21.773Z,4.77
2019-01-16T18:59:01.155Z,5.07
2019-01-16T19:01:49.225Z,4.83
2019-01-16T19:04:19.570Z,4.78
2019-01-16T19:07:07.874Z,5.03
2019-01-16T19:09:38.199Z,5.18
2019-01-16T19:12:17.842Z,4.98
2019-01-16T19:15:06.058Z,4.77
2019-01-16T19:17:36.327Z,4.60
2019-01-16T19:20:21.204Z,4.94
2019-01-16T19:23:06.736Z,4.96
2019-01-16T19:25:40.042Z,5.14
2019-01-16T19:28:10.326Z,5.18
2019-01-16T19:30:56.362Z,5.25
2019-01-16T19:33:26.768Z,5.21
2019-01-16T19:36:13.734Z,4.92
2019-01-16T19:39:00.399Z,5.20
2019-01-16T19:41:30.731Z,5.30
2019-01-16T19:44:07.286Z,5.15
2019-01-16T19:46:53.812Z,5.08
2019-01-16T19:49:25.552Z,5.09
2019-01-16T19:52:11.080Z,4.78
2019-01-16T19:54:50.057Z,4.96
2019-01-16T19:57:29.053Z,5.04
2019-01-16T20:00:08.458Z,4.91
2019-01-16T20:02:47.990Z,4.92
2019-01-16T20:05:18.267Z,4.94
2019-01-16T20:07:49.996Z,5.12
2019-01-16T20:10:29.432Z,5.00
2019-01-16T20:13:05.507Z,5.02
2019-01-16T20:15:52.716Z,5.03
2019-01-16T20:18:41.493Z,4.89
2019-01-16T20:21:14.618Z,4.89
2019-01-16T20:23:44.918Z,4.67
2019-01-16T20:26:33.329Z,4.86
2019-01-16T20:29:03.746Z,5.23
2019-01-16T20:31:34.013Z,5.76
2019-01-16T20:34:12.802Z,5.84
2019-01-16T20:36:59.220Z,5.88
2019-01-16T20:39:29.607Z,6.08
2019-01-16T20:42:08.590Z,6.17
2019-01-16T20:44:53.690Z,6.18
2019-01-16T20:47:23.909Z,6.18
2019-01-16T20:49:59.709Z,6.16
2019-01-16T20:52:42.235Z,6.18
2019-01-16T20:55:18.747Z,6.19
2019-01-16T20:58:05.454Z,6.23
2019-01-16T21:00:51.707Z,6.14
2019-01-16T21:03:38.335Z,6.21
2019-01-16T21:06:21.131Z,6.25
2019-01-16T21:08:54.272Z,6.20
2019-01-16T21:11:24.561Z,6.26
2019-01-16T21:13:54.877Z,6.27
2019-01-16T21:16:25.015Z,6.16
2019-01-16T21:19:07.552Z,6.21
2019-01-16T21:21:46.517Z,6.19
2019-01-16T21:24:22.831Z,6.33
2019-01-16T21:26:52.981Z,6.32
2019-01-16T21:29:26.034Z,6.31
2019-01-16T21:32:05.545Z,6.33
2019-01-16T21:34:35.968Z,6.38
2019-01-16T21:37:06.386Z,6.51
2019-01-16T21:39:51.797Z,6.34
2019-01-16T21:42:27.679Z,6.32
2019-01-16T21:45:10.017Z,6.36
2019-01-16T21:47:42.867Z,6.46
2019-01-16T21:50:25.353Z,6.44
2019-01-16T21:53:10.594Z,6.36
2019-01-16T21:55:43.687Z,6.33
2019-01-16T21:58:22.966Z,6.43
2019-01-16T22:00:53.252Z,6.41
2019-01-16T22:03:25.739Z,6.32
2019-01-16T22:06:01.325Z,6.35
2019-01-16T22:08:31.487Z,6.64
2019-01-16T22:11:10.594Z,6.39
2019-01-16T22:13:43.348Z,6.35
2019-01-16T22:16:29.602Z,6.39
2019-01-16T22:19:14.496Z,6.35
2019-01-16T22:21:53.810Z,6.31
2019-01-16T22:24:32.870Z,6.40
2019-01-16T22:27:19.533Z,6.48
2019-01-16T22:29:52.182Z,6.38
2019-01-16T22:32:25.255Z,6.43
2019-01-16T22:34:55.313Z,6.41
2019-01-16T22:37:25.381Z,6.47
2019-01-16T22:39:57.897Z,6.44
2019-01-16T22:42:28.049Z,6.38
2019-01-16T22:44:58.107Z,6.42
2019-01-16T22:47:44.807Z,6.42
2019-01-16T22:50:20.711Z,6.43
2019-01-16T22:52:53.331Z,6.34
2019-01-16T22:55:38.125Z,6.47
2019-01-16T22:58:11.439Z,6.43
2019-01-16T23:00:55.165Z,6.48
2019-01-16T23:03:31.271Z,6.42
2019-01-16T23:06:07.522Z,6.54
2019-01-16T23:08:37.689Z,6.56
2019-01-16T23:11:07.800Z,6.54
2019-01-16T23:13:43.566Z,6.54
2019-01-16T23:16:28.445Z,6.56
2019-01-16T23:18:59.784Z,6.58
2019-01-16T23:21:55.512Z,6.58
2019-01-16T23:24:25.684Z,6.68
2019-01-16T23:27:01.547Z,6.56
2019-01-16T23:29:50.453Z,6.63
2019-01-16T23:32:19.659Z,6.57
2019-01-16T23:35:05.577Z,6.62
2019-01-16T23:37:50.661Z,6.61
2019-01-16T23:40:23.786Z,6.62
2019-01-16T23:42:53.953Z,6.56
2019-01-16T23:45:32.813Z,6.62
2019-01-16T23:48:02.905Z,6.66
2019-01-16T23:50:32.967Z,6.65
2019-01-16T23:53:19.417Z,6.67
2019-01-16T23:56:06.043Z,6.70
2019-01-16T23:58:39.073Z,6.70
